Time;durP1;ratioP1;P1;durP2;ratioP2;P2;SDS_P1;SDS_P2;PMS_P1;PMS_P2;Temp;Humidity;BMP_temperature;BMP_pressure;BME280_temperature;BME280_humidity;BME280_pressure;Samples;Min_cycle;Max_cycle;Signal;HPM_P1;HPM_P2
2022/03/22 00:00:40;;;;;;;27.85;11.80;;;9.20;99.90;;;;;;5022072;28;20072;-66
2022/03/22 00:03:06;;;;;;;29.48;13.55;;;9.10;99.90;;;;;;5024777;28;20124;-66
2022/03/22 00:05:32;;;;;;;30.92;12.55;;;9.10;99.90;;;;;;5029911;28;20112;-65
2022/03/22 00:08:00;;;;;;;29.42;12.00;;;9.00;99.90;;;;;;5023867;28;20569;-65
2022/03/22 00:10:27;;;;;;;27.17;11.57;;;8.90;99.90;;;;;;5023358;28;20044;-67
2022/03/22 00:12:52;;;;;;;24.17;11.02;;;8.90;99.90;;;;;;5022640;28;20030;-66
2022/03/22 00:15:19;;;;;;;27.60;11.75;;;8.90;99.90;;;;;;5031402;28;20107;-67
2022/03/22 00:17:44;;;;;;;29.67;12.77;;;8.90;99.90;;;;;;5022026;28;20030;-65
2022/03/22 00:20:11;;;;;;;31.23;12.55;;;8.80;99.90;;;;;;5031871;28;20497;-65
2022/03/22 00:22:38;;;;;;;32.35;11.88;;;8.80;99.90;;;;;;5020714;28;20488;-66
2022/03/22 00:25:05;;;;;;;25.98;11.93;;;8.80;99.90;;;;;;5025341;28;20021;-66
2022/03/22 00:27:50;;;;;;;28.65;12.98;;;8.80;99.90;;;;;;5023739;28;20401;-66
2022/03/22 00:30:30;;;;;;;32.30;13.82;;;8.80;99.90;;;;;;5024652;28;20053;-66
2022/03/22 00:32:58;;;;;;;29.65;12.32;;;8.80;99.90;;;;;;5024275;28;20060;-65
2022/03/22 00:35:25;;;;;;;26.45;12.32;;;8.80;99.90;;;;;;5024350;28;20045;-65
2022/03/22 00:37:56;;;;;;;27.95;11.45;;;8.70;99.90;;;;;;5023068;28;20092;-65
2022/03/22 00:40:22;;;;;;;;;;;8.70;99.90;;;;;;5029468;28;20037;-67
2022/03/22 00:42:49;;;;;;;35.38;12.73;;;8.80;99.90;;;;;;5024777;28;20477;-66
2022/03/22 00:45:17;;;;;;;34.63;12.20;;;8.80;99.90;;;;;;5023956;28;20117;-67
2022/03/22 00:47:47;;;;;;;29.70;12.38;;;8.80;99.90;;;;;;5022142;28;20383;-66
2022/03/22 00:50:14;;;;;;;31.52;12.93;;;8.80;99.90;;;;;;5024036;28;20037;-67
2022/03/22 00:52:40;;;;;;;26.05;10.75;;;8.80;99.90;;;;;;5021097;28;20030;-67
2022/03/22 00:55:07;;;;;;;32.45;12.45;;;8.70;99.90;;;;;;5020922;28;20045;-66
2022/03/22 00:57:34;;;;;;;27.45;11.70;;;8.70;99.90;;;;;;5024024;28;20041;-66
2022/03/22 01:00:05;;;;;;;30.40;13.38;;;8.70;99.90;;;;;;5020694;28;20056;-63
2022/03/22 01:02:35;;;;;;;26.52;11.50;;;8.60;99.90;;;;;;5023831;28;20029;-67
2022/03/22 01:05:04;;;;;;;26.45;12.80;;;8.60;99.90;;;;;;5019565;28;20057;-68
2022/03/22 01:07:29;;;;;;;31.55;12.23;;;8.60;99.90;;;;;;5022884;28;20037;-66
2022/03/22 01:09:55;;;;;;;29.38;12.18;;;8.60;99.90;;;;;;5021216;28;20375;-65
2022/03/22 01:12:21;;;;;;;30.25;13.10;;;8.60;99.90;;;;;;5022551;28;20045;-65
2022/03/22 01:14:47;;;;;;;37.72;13.40;;;8.60;99.90;;;;;;5030379;28;20123;-66
2022/03/22 01:17:13;;;;;;;29.98;12.70;;;8.60;99.90;;;;;;5021714;28;20117;-65
2022/03/22 01:19:39;;;;;;;32.38;12.75;;;8.60;99.90;;;;;;5025220;28;20033;-64
2022/03/22 01:22:05;;;;;;;34.08;12.80;;;8.60;99.90;;;;;;5021517;28;20486;-66
2022/03/22 01:24:32;;;;;;;30.95;12.88;;;8.50;99.90;;;;;;5023803;28;20029;-65
2022/03/22 01:26:57;;;;;;;28.83;12.02;;;8.40;99.90;;;;;;5020850;28;20124;-64
2022/03/22 01:29:23;;;;;;;29.45;12.90;;;8.50;99.90;;;;;;5021031;28;20128;-66
2022/03/22 01:31:49;;;;;;;29.00;12.52;;;8.50;99.90;;;;;;5019591;28;20026;-63
2022/03/22 01:34:15;;;;;;;28.95;12.07;;;8.50;99.90;;;;;;5022302;28;20041;-64
2022/03/22 01:36:41;;;;;;;31.38;13.77;;;8.50;99.90;;;;;;5020851;28;20034;-66
2022/03/22 01:39:07;;;;;;;25.45;12.45;;;8.60;99.90;;;;;;5023684;28;20038;-67
2022/03/22 01:41:34;;;;;;;33.47;12.82;;;8.60;99.90;;;;;;5023898;28;20050;-66
2022/03/22 01:44:00;;;;;;;30.42;11.82;;;8.60;99.90;;;;;;5023809;28;20042;-65
2022/03/22 01:46:27;;;;;;;28.50;12.07;;;8.60;99.90;;;;;;5020723;28;20042;-65
2022/03/22 01:48:54;;;;;;;33.50;12.35;;;8.50;99.90;;;;;;5020532;28;20228;-66
2022/03/22 01:51:21;;;;;;;34.85;13.20;;;8.60;99.90;;;;;;5021641;28;20033;-66
2022/03/22 01:53:47;;;;;;;35.55;12.82;;;8.70;99.90;;;;;;5020292;28;20034;-66
2022/03/22 01:56:13;;;;;;;33.58;12.75;;;8.70;99.90;;;;;;5020937;28;20033;-64
2022/03/22 01:58:39;;;;;;;29.33;11.93;;;8.70;99.90;;;;;;5020218;28;20038;-65
2022/03/22 02:06:33;;;;;;;27.27;11.52;;;8.80;99.90;;;;;;5019714;28;20080;-65
2022/03/22 02:09:00;;;;;;;31.75;12.18;;;8.80;99.90;;;;;;5036339;22;20038;-61
2022/03/22 02:11:26;;;;;;;26.92;11.82;;;8.70;99.90;;;;;;5040794;28;20041;-62
2022/03/22 02:13:51;;;;;;;25.55;12.00;;;8.80;99.90;;;;;;5043955;28;20226;-66
2022/03/22 02:16:17;;;;;;;28.35;12.07;;;8.80;99.90;;;;;;5034383;28;20385;-61
2022/03/22 02:18:44;;;;;;;31.90;12.45;;;8.90;99.90;;;;;;5022775;28;20034;-62
2022/03/22 02:21:10;;;;;;;30.20;12.32;;;9.00;99.90;;;;;;5020350;28;20049;-61
2022/03/22 02:23:49;;;;;;;31.55;11.02;;;9.00;99.90;;;;;;5023616;28;20051;-60
2022/03/22 02:26:16;;;;;;;29.48;12.18;;;9.10;99.90;;;;;;5021152;28;20029;-62
2022/03/22 02:28:43;;;;;;;27.98;12.48;;;9.10;99.90;;;;;;5022808;28;20026;-61
2022/03/22 02:31:09;;;;;;;28.50;12.13;;;9.20;99.90;;;;;;5020307;28;20030;-61
2022/03/22 02:33:35;;;;;;;25.08;11.68;;;9.20;99.90;;;;;;5023394;28;20407;-61
2022/03/22 02:36:01;;;;;;;23.95;11.13;;;9.10;99.90;;;;;;5019415;28;20125;-61
2022/03/22 02:38:26;;;;;;;26.45;11.43;;;9.20;99.90;;;;;;5023285;28;20032;-61
2022/03/22 02:40:52;;;;;;;28.48;10.77;;;9.20;99.90;;;;;;5019572;28;20106;-62
2022/03/22 02:43:18;;;;;;;25.95;10.40;;;9.10;99.90;;;;;;5022141;28;20085;-60
2022/03/22 02:45:43;;;;;;;28.27;11.85;;;9.00;99.90;;;;;;5020687;28;20542;-61
2022/03/22 02:48:11;;;;;;;26.58;11.85;;;9.00;99.90;;;;;;5021802;28;20091;-61
2022/03/22 02:50:36;;;;;;;26.13;11.63;;;8.90;99.90;;;;;;5019051;28;20045;-61
2022/03/22 02:53:02;;;;;;;29.73;12.70;;;8.90;99.90;;;;;;5022578;28;20090;-61
2022/03/22 02:55:28;;;;;;;30.02;12.60;;;8.90;99.90;;;;;;5019463;28;20030;-61
2022/03/22 02:57:53;;;;;;;27.90;11.95;;;8.80;99.90;;;;;;5020575;28;20029;-61
2022/03/22 03:00:20;;;;;;;28.75;11.57;;;8.80;99.90;;;;;;5019496;28;20044;-60
2022/03/22 03:02:51;;;;;;;22.60;10.85;;;8.70;99.90;;;;;;5021115;28;20154;-60
2022/03/22 03:05:18;;;;;;;29.85;11.45;;;8.70;99.90;;;;;;5019928;28;20037;-61
2022/03/22 03:07:44;;;;;;;26.23;11.18;;;8.70;99.90;;;;;;5018265;28;20149;-61
2022/03/22 03:10:10;;;;;;;27.67;11.52;;;8.70;99.90;;;;;;5019805;28;20026;-61
2022/03/22 03:12:36;;;;;;;32.35;12.27;;;8.60;99.90;;;;;;5022652;28;20044;-61
2022/03/22 03:15:03;;;;;;;28.02;11.00;;;8.60;99.90;;;;;;5019441;28;20630;-61
2022/03/22 03:17:29;;;;;;;28.92;11.82;;;8.60;99.90;;;;;;5018457;28;20029;-61
2022/03/22 03:19:55;;;;;;;27.70;11.10;;;8.50;99.90;;;;;;5020962;28;20038;-62
2022/03/22 03:22:20;;;;;;;29.58;12.65;;;8.50;99.90;;;;;;5020048;28;20041;-60
2022/03/22 03:24:46;;;;;;;23.88;11.63;;;8.50;99.90;;;;;;5021300;28;20041;-61
2022/03/22 03:27:12;;;;;;;27.40;11.35;;;8.50;99.90;;;;;;5019638;28;20113;-61
2022/03/22 03:29:37;;;;;;;33.05;12.73;;;8.40;99.90;;;;;;5017726;28;20049;-61
2022/03/22 03:32:03;;;;;;;30.15;12.25;;;8.40;99.90;;;;;;5018687;28;20038;-61
2022/03/22 03:34:29;;;;;;;37.90;12.70;;;8.40;99.90;;;;;;5018857;28;20041;-61
2022/03/22 03:36:55;;;;;;;27.52;12.70;;;8.40;99.90;;;;;;5022020;28;20485;-61
2022/03/22 03:39:20;;;;;;;24.80;10.93;;;8.40;99.90;;;;;;5020181;28;20114;-60
2022/03/22 03:41:59;;;;;;;30.83;12.02;;;8.40;99.90;;;;;;5022834;28;20061;-61
2022/03/22 03:47:13;;;;;;;34.53;12.75;;;8.40;99.90;;;;;;5020209;28;20400;-61
2022/03/22 03:49:41;;;;;;;30.15;12.73;;;8.30;99.90;;;;;;5021225;28;20030;-60
2022/03/22 03:52:09;;;;;;;30.67;11.52;;;8.30;99.90;;;;;;5018183;28;20687;-60
2022/03/22 03:54:34;;;;;;;26.92;11.80;;;8.30;99.90;;;;;;5022654;28;20464;-60
2022/03/22 03:57:00;;;;;;;26.30;12.35;;;8.20;99.90;;;;;;5016952;28;20022;-60
2022/03/22 03:59:26;;;;;;;31.42;12.65;;;8.20;99.90;;;;;;5023102;28;20481;-60
2022/03/22 04:01:52;;;;;;;36.47;13.40;;;8.20;99.90;;;;;;5019354;28;20500;-61
2022/03/22 04:04:18;;;;;;;25.73;10.60;;;8.20;99.90;;;;;;5022356;28;20044;-59
2022/03/22 04:06:45;;;;;;;32.90;12.52;;;8.20;99.90;;;;;;5020379;28;20112;-60
2022/03/22 04:09:10;;;;;;;30.50;12.98;;;8.20;99.90;;;;;;5020340;28;20037;-60
2022/03/22 04:11:38;;;;;;;33.80;13.63;;;8.20;99.90;;;;;;5021853;28;20676;-60
2022/03/22 04:14:04;;;;;;;34.40;12.60;;;8.20;99.90;;;;;;5020148;28;20121;-62
2022/03/22 04:16:30;;;;;;;27.85;12.55;;;8.20;99.90;;;;;;5022180;28;20116;-60
2022/03/22 04:18:55;;;;;;;24.83;12.13;;;8.20;99.90;;;;;;5018763;28;20057;-60
2022/03/22 04:21:21;;;;;;;28.23;11.68;;;8.10;99.90;;;;;;5019166;28;20041;-60
2022/03/22 04:23:46;;;;;;;26.50;12.75;;;8.10;99.90;;;;;;5022431;28;20038;-61
2022/03/22 04:26:12;;;;;;;34.75;12.88;;;8.10;99.90;;;;;;5020032;28;20033;-60
2022/03/22 04:34:06;;;;;;;26.67;11.77;;;8.10;99.90;;;;;;5023000;28;20080;-61
2022/03/22 04:36:31;;;;;;;25.70;11.35;;;8.10;99.90;;;;;;5019197;28;20065;-61
2022/03/22 04:38:57;;;;;;;27.10;11.70;;;8.10;99.90;;;;;;5024357;28;20041;-60
2022/03/22 04:41:23;;;;;;;32.30;12.48;;;8.10;99.90;;;;;;5025919;28;20040;-60
2022/03/22 04:43:50;;;;;;;31.88;13.65;;;8.20;99.90;;;;;;5029589;28;20421;-60
2022/03/22 04:46:18;;;;;;;28.83;12.18;;;8.20;99.90;;;;;;5024949;28;20038;-61
2022/03/22 04:48:45;;;;;;;28.10;12.43;;;8.10;99.90;;;;;;5023811;28;20090;-60
2022/03/22 04:56:43;;;;;;;27.95;11.93;;;8.10;99.90;;;;;;5024197;28;20037;-61
2022/03/22 04:59:24;;;;;;;31.42;12.52;;;8.00;99.90;;;;;;5023721;28;20034;-60
2022/03/22 05:01:51;;;;;;;27.48;12.35;;;8.00;99.90;;;;;;5020923;28;20030;-61
2022/03/22 05:04:17;;;;;;;29.58;11.43;;;8.00;99.90;;;;;;5024610;28;20034;-60
2022/03/22 05:06:42;;;;;;;29.58;12.40;;;8.00;99.90;;;;;;5023484;28;20523;-60
2022/03/22 05:09:10;;;;;;;29.58;12.63;;;8.00;99.90;;;;;;5023884;28;20121;-62
2022/03/22 05:11:36;;;;;;;26.60;11.52;;;7.90;99.90;;;;;;5023041;28;20117;-61
2022/03/22 05:14:02;;;;;;;36.05;11.32;;;7.90;99.90;;;;;;5022373;28;20560;-59
2022/03/22 05:16:31;;;;;;;25.55;11.02;;;7.80;99.90;;;;;;5025298;28;20041;-59
2022/03/22 05:18:57;;;;;;;30.60;12.75;;;7.80;99.90;;;;;;5022350;28;20037;-60
2022/03/22 05:21:24;;;;;;;24.92;10.93;;;7.70;99.90;;;;;;5023537;28;20034;-60
2022/03/22 05:23:50;;;;;;;34.00;11.23;;;7.70;99.90;;;;;;5021201;28;20034;-60
2022/03/22 05:26:16;;;;;;;29.65;11.95;;;7.70;99.90;;;;;;5023500;28;20183;-60
2022/03/22 05:28:45;;;;;;;31.50;13.02;;;7.70;99.90;;;;;;5021994;28;20041;-60
2022/03/22 05:31:12;;;;;;;27.27;11.68;;;7.70;99.90;;;;;;5024788;28;20058;-63
2022/03/22 05:33:41;;;;;;;28.27;11.65;;;7.80;99.90;;;;;;5030063;28;20026;-60
2022/03/22 05:36:09;;;;;;;28.85;12.18;;;7.70;99.90;;;;;;5028638;28;20052;-61
2022/03/22 05:38:36;;;;;;;26.38;11.60;;;7.80;99.90;;;;;;5028661;28;20033;-62
2022/03/22 05:41:06;;;;;;;26.38;11.35;;;7.80;99.90;;;;;;5023531;28;20042;-65
2022/03/22 05:43:32;;;;;;;26.33;12.30;;;7.80;99.90;;;;;;5029315;28;20037;-60
2022/03/22 05:45:57;;;;;;;27.77;11.57;;;7.80;99.90;;;;;;5021490;28;20046;-61
2022/03/22 05:48:24;;;;;;;27.17;12.13;;;7.80;99.90;;;;;;5024820;28;20025;-61
2022/03/22 05:50:50;;;;;;;31.35;11.93;;;7.80;99.90;;;;;;5020704;28;20041;-59
2022/03/22 05:53:16;;;;;;;24.52;11.88;;;7.80;99.90;;;;;;5022421;28;20073;-60
2022/03/22 05:55:42;;;;;;;37.70;13.23;;;7.80;99.90;;;;;;5021060;28;20046;-59
2022/03/22 05:58:08;;;;;;;31.92;12.07;;;7.80;99.90;;;;;;5025272;28;20481;-60
2022/03/22 06:00:35;;;;;;;29.98;11.15;;;7.80;99.90;;;;;;5023350;28;20095;-60
2022/03/22 06:03:01;;;;;;;25.92;10.35;;;7.90;99.90;;;;;;5030526;28;20072;-60
2022/03/22 06:05:28;;;;;;;28.02;10.68;;;8.00;99.90;;;;;;5026917;28;20057;-61
2022/03/22 06:07:55;;;;;;;23.33;10.98;;;8.00;99.90;;;;;;5021818;28;20038;-60
2022/03/22 06:10:21;;;;;;;25.13;11.15;;;8.00;99.90;;;;;;5024788;28;20030;-61
2022/03/22 06:12:48;;;;;;;25.77;11.35;;;8.10;99.90;;;;;;5029304;28;20157;-60
2022/03/22 06:15:16;;;;;;;27.10;10.57;;;8.10;99.90;;;;;;5023169;28;20060;-61
2022/03/22 06:17:56;;;;;;;32.95;10.95;;;8.10;99.90;;;;;;5026879;28;20742;-62
2022/03/22 06:20:31;;;;;;;30.27;10.23;;;8.20;99.90;;;;;;5026937;28;20055;-61
2022/03/22 06:22:57;;;;;;;29.60;11.35;;;8.20;99.90;;;;;;5024986;28;20034;-61
2022/03/22 06:25:24;;;;;;;32.17;11.48;;;8.20;99.90;;;;;;5029845;28;20036;-61
2022/03/22 06:27:51;;;;;;;28.77;9.85;;;8.30;99.90;;;;;;5024422;28;20038;-60
2022/03/22 06:30:18;;;;;;;22.85;10.40;;;8.40;99.90;;;;;;5025232;28;20041;-60
2022/03/22 06:32:45;;;;;;;29.73;10.75;;;8.40;99.90;;;;;;5025523;28;20026;-60
2022/03/22 06:35:12;;;;;;;23.05;10.27;;;8.50;99.90;;;;;;5024093;28;20042;-61
2022/03/22 06:37:39;;;;;;;24.30;10.60;;;8.50;99.90;;;;;;5025802;28;20044;-62
2022/03/22 06:40:08;;;;;;;22.65;10.07;;;8.60;99.90;;;;;;5022618;28;20538;-60
2022/03/22 06:42:34;;;;;;;32.88;10.43;;;8.80;99.90;;;;;;5029881;28;20041;-61
2022/03/22 06:45:00;;;;;;;27.33;11.07;;;8.80;99.90;;;;;;5029053;28;20033;-60
2022/03/22 06:47:26;;;;;;;26.00;9.15;;;9.00;99.90;;;;;;5024787;28;20056;-62
2022/03/22 06:49:52;;;;;;;25.15;10.55;;;9.00;99.90;;;;;;5025994;28;20533;-61
2022/03/22 06:52:17;;;;;;;23.90;10.05;;;9.10;99.90;;;;;;5029365;28;20035;-61
2022/03/22 06:54:43;;;;;;;22.27;9.98;;;9.10;99.90;;;;;;5029454;28;20489;-60
2022/03/22 06:57:09;;;;;;;29.33;11.02;;;9.30;99.90;;;;;;5028090;28;20485;-61
2022/03/22 06:59:34;;;;;;;21.52;10.20;;;9.40;99.90;;;;;;5028907;28;20025;-60
2022/03/22 07:02:00;;;;;;;26.25;9.50;;;9.50;99.90;;;;;;5023977;28;20034;-60
2022/03/22 07:04:26;;;;;;;23.90;9.65;;;9.60;99.90;;;;;;5025099;28;20037;-61
2022/03/22 07:06:53;;;;;;;26.77;10.65;;;9.70;99.90;;;;;;5029211;28;20034;-60
2022/03/22 07:09:18;;;;;;;23.70;10.02;;;9.70;99.90;;;;;;5033248;28;20141;-63
2022/03/22 07:11:49;;;;;;;22.83;9.55;;;9.80;99.90;;;;;;5026149;28;20080;-63
2022/03/22 07:14:18;;;;;;;;;;;10.00;99.90;;;;;;5027246;28;20033;-61
2022/03/22 07:16:47;;;;;;;23.02;9.75;;;10.10;99.90;;;;;;5027693;28;19936;-63
2022/03/22 07:19:14;;;;;;;30.30;10.48;;;10.20;99.90;;;;;;5024898;28;20033;-59
2022/03/22 07:21:40;;;;;;;19.98;9.60;;;10.30;99.90;;;;;;5030710;28;20030;-60
2022/03/22 07:24:06;;;;;;;23.98;9.18;;;10.40;99.90;;;;;;5028584;28;20037;-60
2022/03/22 07:26:32;;;;;;;27.92;10.70;;;10.60;99.90;;;;;;5027441;28;20037;-62
2022/03/22 07:28:57;;;;;;;25.02;9.85;;;10.70;99.90;;;;;;5027300;28;20497;-61
2022/03/22 07:31:23;;;;;;;22.38;9.77;;;10.80;99.90;;;;;;5027740;28;20096;-62
2022/03/22 07:33:48;;;;;;;24.20;9.82;;;10.90;99.90;;;;;;5028070;28;20037;-61
2022/03/22 07:36:14;;;;;;;22.65;9.68;;;11.00;99.90;;;;;;5025780;28;20029;-61
2022/03/22 07:38:39;;;;;;;28.15;10.13;;;11.10;99.90;;;;;;5027913;28;20033;-60
2022/03/22 07:41:07;;;;;;;34.20;10.82;;;11.10;99.90;;;;;;5029264;28;20105;-60
2022/03/22 07:43:33;;;;;;;23.52;8.95;;;11.20;99.90;;;;;;5020758;28;20067;-60
2022/03/22 07:45:59;;;;;;;24.52;9.73;;;11.30;99.90;;;;;;5026760;28;20509;-61
2022/03/22 07:48:24;;;;;;;21.90;9.23;;;11.50;99.90;;;;;;5026951;28;20033;-61
2022/03/22 07:53:34;;;;;;;23.02;9.77;;;11.70;99.90;;;;;;5025891;28;20044;-60
2022/03/22 07:56:00;;;;;;;23.77;10.15;;;11.80;99.90;;;;;;5023725;28;20037;-60
2022/03/22 07:58:26;;;;;;;26.77;10.57;;;12.00;99.90;;;;;;5025508;28;20038;-60
2022/03/22 08:00:51;;;;;;;21.92;9.40;;;12.00;99.90;;;;;;5020350;28;20083;-60
2022/03/22 08:03:18;;;;;;;22.77;9.40;;;12.10;99.90;;;;;;5023509;28;20057;-61
2022/03/22 08:05:47;;;;;;;19.85;8.68;;;12.20;99.90;;;;;;5023876;28;20068;-60
2022/03/22 08:08:14;;;;;;;26.40;9.53;;;12.20;99.90;;;;;;5021241;28;20041;-62
2022/03/22 08:10:43;;;;;;;19.52;8.40;;;12.30;99.90;;;;;;5022577;28;20052;-60
2022/03/22 08:13:08;;;;;;;21.42;9.00;;;12.50;99.90;;;;;;5019717;28;20520;-62
2022/03/22 08:15:34;;;;;;;21.20;9.80;;;12.60;99.90;;;;;;5030883;28;20034;-61
2022/03/22 08:18:00;;;;;;;20.60;8.48;;;12.70;99.90;;;;;;5024235;28;20374;-61
2022/03/22 08:20:30;;;;;;;18.83;9.73;;;12.80;99.90;;;;;;5026614;28;20044;-60
2022/03/22 08:23:02;;;;;;;22.85;9.85;;;12.90;99.90;;;;;;5025024;28;20029;-63
2022/03/22 08:25:36;;;;;;;20.80;8.90;;;13.00;99.90;;;;;;5023307;28;20037;-59
2022/03/22 08:28:03;;;;;;;20.85;9.98;;;13.10;99.90;;;;;;5024559;28;20508;-60
2022/03/22 08:30:30;;;;;;;21.48;9.35;;;13.10;99.90;;;;;;5027009;28;20056;-60
2022/03/22 08:32:58;;;;;;;20.10;8.65;;;13.30;99.90;;;;;;5027720;28;20374;-59
2022/03/22 08:35:25;;;;;;;22.77;8.98;;;13.30;99.90;;;;;;5024378;28;20029;-59
2022/03/22 08:37:52;;;;;;;20.13;8.90;;;13.40;99.90;;;;;;5024692;28;20041;-61
2022/03/22 08:40:18;;;;;;;23.67;9.45;;;13.60;99.90;;;;;;5027084;28;20056;-61
2022/03/22 08:42:45;;;;;;;20.95;8.35;;;13.60;99.90;;;;;;5025632;28;20099;-62
2022/03/22 08:45:16;;;;;;;21.08;8.27;;;13.80;99.90;;;;;;5027242;28;20033;-60
2022/03/22 08:47:45;;;;;;;20.45;9.20;;;13.90;99.90;;;;;;5025776;28;20037;-61
2022/03/22 08:50:13;;;;;;;27.05;8.52;;;14.00;99.90;;;;;;5022549;28;20461;-61
2022/03/22 08:52:39;;;;;;;24.65;8.55;;;14.10;99.90;;;;;;5024377;28;20038;-61
2022/03/22 08:55:07;;;;;;;20.17;8.15;;;14.30;99.90;;;;;;5025766;28;20041;-60
2022/03/22 08:57:36;;;;;;;19.15;8.23;;;14.30;99.90;;;;;;5024456;28;20034;-60
2022/03/22 09:00:08;;;;;;;18.33;9.20;;;14.40;99.90;;;;;;5022829;28;20052;-60
2022/03/22 09:02:42;;;;;;;19.30;8.43;;;14.60;99.90;;;;;;5025410;28;20037;-62
2022/03/22 09:07:58;;;;;;;25.20;10.10;;;14.80;99.90;;;;;;5025539;28;20113;-60
2022/03/22 09:10:24;;;;;;;24.50;11.43;;;14.90;99.90;;;;;;5025326;28;20060;-61
2022/03/22 09:12:50;;;;;;;20.17;9.77;;;15.00;99.90;;;;;;5030345;28;20039;-59
2022/03/22 09:15:18;;;;;;;23.63;11.02;;;15.10;99.90;;;;;;5025602;28;20038;-60
2022/03/22 09:17:44;;;;;;;23.15;10.70;;;15.20;99.90;;;;;;5023969;28;20029;-60
2022/03/22 09:20:13;;;;;;;19.60;9.18;;;15.30;99.90;;;;;;5025112;28;20488;-63
2022/03/22 09:22:43;;;;;;;17.58;8.52;;;15.40;99.90;;;;;;5024848;28;20033;-62
2022/03/22 09:25:12;;;;;;;16.48;8.57;;;15.60;99.90;;;;;;5022951;28;20033;-60
2022/03/22 09:27:39;;;;;;;17.55;8.60;;;15.70;99.90;;;;;;5021954;28;20056;-62
2022/03/22 09:30:06;;;;;;;18.63;8.20;;;15.90;99.90;;;;;;5030482;28;20030;-60
2022/03/22 09:32:32;;;;;;;21.80;9.05;;;15.90;99.50;;;;;;5028244;28;20080;-62
2022/03/22 09:35:00;;;;;;;20.25;9.15;;;16.00;98.60;;;;;;5026250;28;20150;-60
2022/03/22 09:37:27;;;;;;;22.33;9.38;;;16.10;98.40;;;;;;5027080;28;20499;-61
2022/03/22 09:39:54;;;;;;;16.67;8.00;;;16.20;99.10;;;;;;5027365;28;20877;-64
2022/03/22 09:42:20;;;;;;;18.45;7.88;;;16.30;98.00;;;;;;5026532;28;20029;-62
2022/03/22 09:44:50;;;;;;;15.63;7.25;;;16.40;97.60;;;;;;5029563;28;20041;-61
2022/03/22 09:47:16;;;;;;;15.57;7.13;;;16.40;96.00;;;;;;5029300;28;20112;-61
2022/03/22 09:49:41;;;;;;;16.20;7.25;;;16.50;96.50;;;;;;5025059;28;20156;-62
2022/03/22 09:52:09;;;;;;;17.35;8.07;;;16.50;96.60;;;;;;5026338;28;20585;-59
2022/03/22 09:54:35;;;;;;;23.05;9.13;;;16.50;97.80;;;;;;5023983;28;20501;-59
2022/03/22 09:57:04;;;;;;;20.67;8.55;;;16.60;96.70;;;;;;5028829;28;20037;-60
2022/03/22 09:59:31;;;;;;;17.45;8.82;;;16.70;96.70;;;;;;5025559;28;20037;-60
2022/03/22 10:02:01;;;;;;;22.83;7.53;;;16.70;96.60;;;;;;5029420;28;20022;-61
2022/03/22 10:04:42;;;;;;;17.75;8.57;;;16.80;96.40;;;;;;5025106;28;20308;-60
2022/03/22 10:07:17;;;;;;;21.52;8.45;;;16.90;96.10;;;;;;5026869;28;20063;-60
2022/03/22 10:09:54;;;;;;;19.05;7.72;;;17.00;95.10;;;;;;5023596;28;20048;-61
2022/03/22 10:12:27;;;;;;;18.95;7.90;;;17.10;95.40;;;;;;5027860;28;20393;-62
2022/03/22 10:14:53;;;;;;;14.40;7.55;;;17.20;95.30;;;;;;5028439;28;20473;-62
2022/03/22 10:17:19;;;;;;;31.77;9.95;;;17.20;95.10;;;;;;5028501;28;20083;-61
2022/03/22 10:19:51;;;;;;;22.27;9.13;;;17.10;95.30;;;;;;5026430;28;20037;-69
2022/03/22 10:22:23;;;;;;;23.00;9.48;;;17.00;95.70;;;;;;5023350;28;20789;-62
2022/03/22 10:24:50;;;;;;;21.50;9.63;;;17.00;95.80;;;;;;5026418;28;20026;-60
2022/03/22 10:27:28;;;;;;;24.30;10.02;;;16.90;95.40;;;;;;5027140;28;20034;-62
2022/03/22 10:29:55;;;;;;;26.23;10.65;;;16.90;95.90;;;;;;5028772;28;20040;-62
2022/03/22 10:32:34;;;;;;;19.58;8.68;;;16.80;95.90;;;;;;5024309;28;20030;-60
2022/03/22 10:35:17;;;;;;;16.33;8.38;;;16.90;95.60;;;;;;5027783;28;20037;-61
2022/03/22 10:37:45;;;;;;;24.02;9.63;;;17.00;96.50;;;;;;5026757;28;20040;-62
2022/03/22 10:40:40;;;;;;;17.25;7.82;;;17.10;95.30;;;;;;5022387;28;20046;-60
2022/03/22 10:43:09;;;;;;;28.80;9.20;;;17.20;94.80;;;;;;5020913;28;20048;-60
2022/03/22 10:46:02;;;;;;;17.75;7.72;;;17.30;94.90;;;;;;5026884;28;20037;-60
2022/03/22 10:48:32;;;;;;;17.15;7.60;;;17.40;94.50;;;;;;5023747;28;20026;-60
2022/03/22 10:50:59;;;;;;;15.63;7.22;;;17.50;95.00;;;;;;5022953;28;20022;-60
2022/03/22 10:53:26;;;;;;;22.13;8.15;;;17.60;94.20;;;;;;5028583;28;20029;-59
2022/03/22 10:55:53;;;;;;;21.50;8.77;;;17.70;94.20;;;;;;5023100;28;20044;-60
2022/03/22 10:58:22;;;;;;;22.05;8.43;;;17.70;94.10;;;;;;5026331;28;20079;-60
2022/03/22 11:00:49;;;;;;;20.52;8.27;;;17.80;93.40;;;;;;5027554;28;20041;-60
2022/03/22 11:03:15;;;;;;;18.40;8.57;;;17.90;93.40;;;;;;5026248;28;20044;-62
2022/03/22 11:05:44;;;;;;;18.77;6.97;;;17.90;93.50;;;;;;5023352;28;20033;-61
2022/03/22 11:08:10;;;;;;;21.30;7.85;;;17.90;92.70;;;;;;5024232;28;20049;-60
2022/03/22 11:10:37;;;;;;;16.65;8.45;;;18.00;93.00;;;;;;5023033;28;20053;-60
2022/03/22 11:13:02;;;;;;;20.58;8.23;;;18.00;92.30;;;;;;5025573;28;21865;-60
2022/03/22 11:15:44;;;;;;;24.58;8.10;;;18.00;92.20;;;;;;5025235;28;20033;-61
2022/03/22 11:18:10;;;;;;;22.70;8.02;;;18.00;92.50;;;;;;5022053;28;20073;-60
2022/03/22 11:20:36;;;;;;;16.45;7.90;;;18.10;92.50;;;;;;5023799;28;20848;-60
2022/03/22 11:23:02;;;;;;;17.60;7.55;;;18.10;91.10;;;;;;5025580;28;20168;-60
2022/03/22 11:25:36;;;;;;;14.10;6.47;;;18.20;90.80;;;;;;5026008;28;20030;-61
2022/03/22 11:28:10;;;;;;;16.23;7.50;;;18.10;90.20;;;;;;5022896;28;20037;-62
2022/03/22 11:30:39;;;;;;;20.27;8.10;;;18.20;90.10;;;;;;5021700;28;20083;-62
2022/03/22 11:36:08;;;;;;;22.33;7.32;;;18.10;90.70;;;;;;5028733;28;20040;-60
2022/03/22 11:38:40;;;;;;;17.92;8.30;;;18.10;90.70;;;;;;5023659;28;20321;-60
2022/03/22 11:44:22;;;;;;;21.73;7.00;;;18.10;90.10;;;;;;5021764;28;20065;-61
2022/03/22 11:47:07;;;;;;;17.52;7.65;;;18.10;91.20;;;;;;5024661;28;20030;-62
2022/03/22 11:49:59;;;;;;;21.70;7.35;;;18.00;90.50;;;;;;5027218;28;20043;-61
2022/03/22 11:52:35;;;;;;;30.63;9.27;;;18.00;90.00;;;;;;5023833;28;20578;-60
2022/03/22 11:55:11;;;;;;;18.38;7.82;;;18.00;90.50;;;;;;5024005;28;20054;-61
2022/03/22 11:57:48;;;;;;;19.73;8.10;;;18.00;89.60;;;;;;5022444;28;20124;-61
2022/03/22 12:00:16;;;;;;;24.08;7.32;;;18.00;89.00;;;;;;5020383;28;20046;-62
2022/03/22 12:02:47;;;;;;;20.92;7.47;;;18.00;90.20;;;;;;5023219;28;20390;-61
2022/03/22 12:05:15;;;;;;;15.93;6.60;;;18.10;88.50;;;;;;5023914;28;20041;-62
2022/03/22 12:07:41;;;;;;;15.70;7.32;;;18.10;88.20;;;;;;5027672;28;20057;-61
2022/03/22 12:10:13;;;;;;;14.00;5.55;;;18.20;87.90;;;;;;5024012;28;20049;-61
2022/03/22 12:12:41;;;;;;;15.60;6.45;;;18.30;83.00;;;;;;5024630;28;20383;-61
2022/03/22 12:15:09;;;;;;;14.18;6.88;;;18.20;86.80;;;;;;5021672;28;20038;-60
2022/03/22 12:17:36;;;;;;;13.90;5.75;;;18.20;88.90;;;;;;5026485;28;20496;-60
2022/03/22 12:20:11;;;;;;;11.90;5.22;;;18.20;86.30;;;;;;5022967;28;20037;-62
2022/03/22 12:22:46;;;;;;;11.20;4.88;;;18.30;84.70;;;;;;5023397;28;20033;-62
2022/03/22 12:25:15;;;;;;;21.15;6.25;;;18.40;83.50;;;;;;5024789;28;20462;-60
2022/03/22 12:28:11;;;;;;;13.65;6.43;;;18.40;82.90;;;;;;5024640;28;20120;-60
2022/03/22 12:30:41;;;;;;;12.40;5.75;;;18.40;83.30;;;;;;5017403;28;20138;-61
2022/03/22 12:33:13;;;;;;;;;;;18.50;83.20;;;;;;5023139;28;20041;-61
2022/03/22 12:35:40;;;;;;;14.57;5.93;;;18.60;82.00;;;;;;5020131;28;20047;-62
2022/03/22 12:38:07;;;;;;;12.48;5.30;;;18.50;80.70;;;;;;5021407;28;20635;-60
2022/03/22 12:40:33;;;;;;;10.80;4.05;;;18.60;78.60;;;;;;5012314;28;20080;-62
2022/03/22 12:43:00;;;;;;;9.23;4.07;;;18.60;76.90;;;;;;5025917;28;20037;-63
2022/03/22 12:45:28;;;;;;;9.60;4.53;;;18.60;75.60;;;;;;5023704;28;20088;-60
2022/03/22 12:47:56;;;;;;;15.68;5.25;;;18.50;76.50;;;;;;5021096;28;20604;-61
2022/03/22 12:50:23;;;;;;;8.80;4.43;;;18.60;76.00;;;;;;5021011;28;20375;-60
2022/03/22 12:52:50;;;;;;;13.55;5.05;;;18.60;77.00;;;;;;5022307;28;20042;-60
2022/03/22 12:55:17;;;;;;;15.30;5.30;;;18.60;77.50;;;;;;5019540;28;20100;-61
2022/03/22 12:57:46;;;;;;;11.90;5.65;;;18.70;77.30;;;;;;5024370;28;20463;-61
2022/03/22 13:00:28;;;;;;;14.82;6.15;;;18.70;76.70;;;;;;5023632;28;20041;-62
2022/03/22 13:02:55;;;;;;;14.68;5.50;;;18.70;77.50;;;;;;5023881;28;20065;-60
2022/03/22 13:05:26;;;;;;;11.20;4.47;;;18.60;77.30;;;;;;5025131;28;20043;-60
2022/03/22 13:07:53;;;;;;;11.45;4.28;;;18.70;77.90;;;;;;5021223;28;20374;-62
2022/03/22 13:13:02;;;;;;;9.40;4.20;;;18.80;73.80;;;;;;5024467;28;20044;-62
2022/03/22 13:15:28;;;;;;;9.80;4.50;;;18.80;74.50;;;;;;5027308;28;20041;-61